sensor_id;sensor_type;location;lat;lon;timestamp;P1;durP1;ratioP1;P2;durP2;ratioP2
75429;SDS011;64127;51.488;5.462;2024-02-04T00:00:59;20.30;;;18.40;;
75429;SDS011;64127;51.488;5.462;2024-02-04T00:03:31;20.00;;;18.03;;
75429;SDS011;64127;51.488;5.462;2024-02-04T00:06:03;19.20;;;17.33;;
75429;SDS011;64127;51.488;5.462;2024-02-04T00:08:35;19.87;;;17.97;;
75429;SDS011;64127;51.488;5.462;2024-02-04T00:11:08;19.03;;;17.33;;
75429;SDS011;64127;51.488;5.462;2024-02-04T00:13:43;20.17;;;18.40;;
75429;SDS011;64127;51.488;5.462;2024-02-04T00:16:15;19.97;;;18.17;;
75429;SDS011;64127;51.488;5.462;2024-02-04T00:18:47;21.57;;;19.57;;
75429;SDS011;64127;51.488;5.462;2024-02-04T00:21:19;20.50;;;18.60;;
75429;SDS011;64127;51.488;5.462;2024-02-04T00:23:51;20.27;;;18.43;;
75429;SDS011;64127;51.488;5.462;2024-02-04T00:26:23;20.73;;;18.80;;
75429;SDS011;64127;51.488;5.462;2024-02-04T00:28:55;20.60;;;18.60;;
75429;SDS011;64127;51.488;5.462;2024-02-04T00:31:27;21.33;;;19.33;;
75429;SDS011;64127;51.488;5.462;2024-02-04T00:33:59;21.13;;;19.13;;
75429;SDS011;64127;51.488;5.462;2024-02-04T00:36:32;20.57;;;18.77;;
75429;SDS011;64127;51.488;5.462;2024-02-04T00:39:04;20.90;;;19.00;;
75429;SDS011;64127;51.488;5.462;2024-02-04T00:41:38;19.87;;;18.17;;
75429;SDS011;64127;51.488;5.462;2024-02-04T00:44:10;19.33;;;17.57;;
75429;SDS011;64127;51.488;5.462;2024-02-04T00:46:43;20.67;;;18.67;;
75429;SDS011;64127;51.488;5.462;2024-02-04T00:49:15;19.17;;;17.37;;
75429;SDS011;64127;51.488;5.462;2024-02-04T00:51:47;20.00;;;18.20;;
75429;SDS011;64127;51.488;5.462;2024-02-04T00:54:19;18.87;;;17.17;;
75429;SDS011;64127;51.488;5.462;2024-02-04T00:56:51;19.20;;;17.60;;
75429;SDS011;64127;51.488;5.462;2024-02-04T00:59:23;20.13;;;18.48;;
75429;SDS011;64127;51.488;5.462;2024-02-04T01:01:55;18.13;;;16.53;;
75429;SDS011;64127;51.488;5.462;2024-02-04T01:04:28;16.17;;;14.77;;
75429;SDS011;64127;51.488;5.462;2024-02-04T01:07:01;15.97;;;14.40;;
75429;SDS011;64127;51.488;5.462;2024-02-04T01:09:33;15.27;;;13.87;;
75429;SDS011;64127;51.488;5.462;2024-02-04T01:12:05;15.70;;;14.30;;
75429;SDS011;64127;51.488;5.462;2024-02-04T01:14:37;15.70;;;14.20;;
75429;SDS011;64127;51.488;5.462;2024-02-04T01:17:09;15.50;;;14.10;;
75429;SDS011;64127;51.488;5.462;2024-02-04T01:19:41;14.33;;;12.93;;
75429;SDS011;64127;51.488;5.462;2024-02-04T01:22:13;14.90;;;13.40;;
75429;SDS011;64127;51.488;5.462;2024-02-04T01:24:45;14.47;;;13.07;;
75429;SDS011;64127;51.488;5.462;2024-02-04T01:27:19;13.57;;;12.17;;
75429;SDS011;64127;51.488;5.462;2024-02-04T01:29:51;14.00;;;12.70;;
75429;SDS011;64127;51.488;5.462;2024-02-04T01:32:24;14.60;;;13.20;;
75429;SDS011;64127;51.488;5.462;2024-02-04T01:34:56;12.67;;;11.57;;
75429;SDS011;64127;51.488;5.462;2024-02-04T01:37:28;12.67;;;11.53;;
75429;SDS011;64127;51.488;5.462;2024-02-04T01:40:00;13.50;;;12.23;;
75429;SDS011;64127;51.488;5.462;2024-02-04T01:42:33;13.23;;;11.97;;
75429;SDS011;64127;51.488;5.462;2024-02-04T01:45:05;13.07;;;11.87;;
75429;SDS011;64127;51.488;5.462;2024-02-04T01:47:38;14.37;;;11.97;;
75429;SDS011;64127;51.488;5.462;2024-02-04T01:50:11;13.03;;;11.87;;
75429;SDS011;64127;51.488;5.462;2024-02-04T01:52:43;13.07;;;11.87;;
75429;SDS011;64127;51.488;5.462;2024-02-04T01:55:16;13.23;;;12.03;;
75429;SDS011;64127;51.488;5.462;2024-02-04T01:57:50;13.73;;;12.43;;
75429;SDS011;64127;51.488;5.462;2024-02-04T02:00:22;13.10;;;11.90;;
75429;SDS011;64127;51.488;5.462;2024-02-04T02:02:54;12.90;;;11.60;;
75429;SDS011;64127;51.488;5.462;2024-02-04T02:05:28;13.17;;;11.67;;
75429;SDS011;64127;51.488;5.462;2024-02-04T02:08:00;13.00;;;11.77;;
75429;SDS011;64127;51.488;5.462;2024-02-04T02:10:32;13.70;;;12.30;;
75429;SDS011;64127;51.488;5.462;2024-02-04T02:13:14;14.67;;;12.53;;
75429;SDS011;64127;51.488;5.462;2024-02-04T02:15:56;14.97;;;13.27;;
75429;SDS011;64127;51.488;5.462;2024-02-04T02:18:42;16.70;;;12.80;;
75429;SDS011;64127;51.488;5.462;2024-02-04T02:24:42;14.87;;;13.37;;
75429;SDS011;64127;51.488;5.462;2024-02-04T02:27:18;17.37;;;13.93;;
75429;SDS011;64127;51.488;5.462;2024-02-04T02:29:50;16.77;;;13.60;;
75429;SDS011;64127;51.488;5.462;2024-02-04T02:32:22;17.23;;;13.90;;
75429;SDS011;64127;51.488;5.462;2024-02-04T02:34:55;21.03;;;14.23;;
75429;SDS011;64127;51.488;5.462;2024-02-04T02:37:44;22.67;;;14.97;;
75429;SDS011;64127;51.488;5.462;2024-02-04T02:40:40;21.00;;;15.20;;
75429;SDS011;64127;51.488;5.462;2024-02-04T02:43:25;19.10;;;14.60;;
75429;SDS011;64127;51.488;5.462;2024-02-04T02:45:58;17.47;;;14.67;;
75429;SDS011;64127;51.488;5.462;2024-02-04T02:48:31;20.47;;;14.40;;
75429;SDS011;64127;51.488;5.462;2024-02-04T02:51:04;15.13;;;13.23;;
75429;SDS011;64127;51.488;5.462;2024-02-04T02:53:36;20.63;;;14.73;;
75429;SDS011;64127;51.488;5.462;2024-02-04T02:56:09;19.37;;;14.07;;
75429;SDS011;64127;51.488;5.462;2024-02-04T02:58:41;18.53;;;13.87;;
75429;SDS011;64127;51.488;5.462;2024-02-04T03:01:13;17.83;;;13.73;;
75429;SDS011;64127;51.488;5.462;2024-02-04T03:03:45;20.33;;;13.07;;
75429;SDS011;64127;51.488;5.462;2024-02-04T03:06:17;19.23;;;13.50;;
75429;SDS011;64127;51.488;5.462;2024-02-04T03:08:49;16.80;;;12.43;;
75429;SDS011;64127;51.488;5.462;2024-02-04T03:11:21;19.77;;;12.93;;
75429;SDS011;64127;51.488;5.462;2024-02-04T03:13:53;18.37;;;13.47;;
75429;SDS011;64127;51.488;5.462;2024-02-04T03:16:25;18.43;;;12.70;;
75429;SDS011;64127;51.488;5.462;2024-02-04T03:18:57;18.23;;;12.93;;
75429;SDS011;64127;51.488;5.462;2024-02-04T03:21:29;15.83;;;12.77;;
75429;SDS011;64127;51.488;5.462;2024-02-04T03:24:01;19.30;;;12.83;;
75429;SDS011;64127;51.488;5.462;2024-02-04T03:26:34;19.33;;;12.30;;
75429;SDS011;64127;51.488;5.462;2024-02-04T03:29:06;15.23;;;12.53;;
75429;SDS011;64127;51.488;5.462;2024-02-04T03:31:38;19.40;;;12.67;;
75429;SDS011;64127;51.488;5.462;2024-02-04T03:34:10;18.67;;;12.80;;
75429;SDS011;64127;51.488;5.462;2024-02-04T03:36:42;18.40;;;12.37;;
75429;SDS011;64127;51.488;5.462;2024-02-04T03:39:14;18.03;;;12.33;;
75429;SDS011;64127;51.488;5.462;2024-02-04T03:41:46;20.27;;;12.67;;
75429;SDS011;64127;51.488;5.462;2024-02-04T03:44:18;18.50;;;12.80;;
75429;SDS011;64127;51.488;5.462;2024-02-04T03:46:50;16.50;;;12.20;;
75429;SDS011;64127;51.488;5.462;2024-02-04T03:49:22;19.53;;;12.77;;
75429;SDS011;64127;51.488;5.462;2024-02-04T03:51:54;17.43;;;12.63;;
75429;SDS011;64127;51.488;5.462;2024-02-04T03:54:26;20.57;;;12.73;;
75429;SDS011;64127;51.488;5.462;2024-02-04T03:56:58;17.60;;;12.33;;
75429;SDS011;64127;51.488;5.462;2024-02-04T03:59:30;18.60;;;12.73;;
75429;SDS011;64127;51.488;5.462;2024-02-04T04:02:02;16.80;;;12.23;;
75429;SDS011;64127;51.488;5.462;2024-02-04T04:04:35;17.27;;;12.63;;
75429;SDS011;64127;51.488;5.462;2024-02-04T04:07:07;17.13;;;11.77;;
75429;SDS011;64127;51.488;5.462;2024-02-04T04:09:39;18.10;;;11.90;;
75429;SDS011;64127;51.488;5.462;2024-02-04T04:12:11;16.27;;;12.03;;
75429;SDS011;64127;51.488;5.462;2024-02-04T04:14:43;15.53;;;11.97;;
75429;SDS011;64127;51.488;5.462;2024-02-04T04:17:15;17.30;;;11.50;;
75429;SDS011;64127;51.488;5.462;2024-02-04T04:19:47;17.67;;;12.10;;
75429;SDS011;64127;51.488;5.462;2024-02-04T04:22:19;18.77;;;11.97;;
75429;SDS011;64127;51.488;5.462;2024-02-04T04:24:51;17.50;;;12.20;;
75429;SDS011;64127;51.488;5.462;2024-02-04T04:27:23;16.70;;;12.10;;
75429;SDS011;64127;51.488;5.462;2024-02-04T04:29:55;20.53;;;12.47;;
75429;SDS011;64127;51.488;5.462;2024-02-04T04:32:27;21.73;;;12.13;;
75429;SDS011;64127;51.488;5.462;2024-02-04T04:34:59;21.50;;;11.83;;
75429;SDS011;64127;51.488;5.462;2024-02-04T04:37:31;16.97;;;11.90;;
75429;SDS011;64127;51.488;5.462;2024-02-04T04:40:03;20.57;;;12.60;;
75429;SDS011;64127;51.488;5.462;2024-02-04T04:42:37;16.60;;;12.17;;
75429;SDS011;64127;51.488;5.462;2024-02-04T04:45:09;17.23;;;12.17;;
75429;SDS011;64127;51.488;5.462;2024-02-04T04:47:42;20.47;;;12.47;;
75429;SDS011;64127;51.488;5.462;2024-02-04T04:50:14;15.40;;;11.43;;
75429;SDS011;64127;51.488;5.462;2024-02-04T04:52:47;16.00;;;11.73;;
75429;SDS011;64127;51.488;5.462;2024-02-04T04:55:19;18.07;;;11.53;;
75429;SDS011;64127;51.488;5.462;2024-02-04T04:57:51;18.63;;;12.10;;
75429;SDS011;64127;51.488;5.462;2024-02-04T05:00:23;16.80;;;11.63;;
75429;SDS011;64127;51.488;5.462;2024-02-04T05:02:55;20.37;;;12.30;;
75429;SDS011;64127;51.488;5.462;2024-02-04T05:05:27;19.20;;;12.23;;
75429;SDS011;64127;51.488;5.462;2024-02-04T05:07:59;17.13;;;11.67;;
75429;SDS011;64127;51.488;5.462;2024-02-04T05:10:31;17.13;;;12.30;;
75429;SDS011;64127;51.488;5.462;2024-02-04T05:13:03;16.27;;;12.50;;
75429;SDS011;64127;51.488;5.462;2024-02-04T05:15:35;17.50;;;11.77;;
75429;SDS011;64127;51.488;5.462;2024-02-04T05:18:08;17.90;;;12.43;;
75429;SDS011;64127;51.488;5.462;2024-02-04T05:20:40;18.70;;;13.20;;
75429;SDS011;64127;51.488;5.462;2024-02-04T05:23:12;17.53;;;12.87;;
75429;SDS011;64127;51.488;5.462;2024-02-04T05:25:44;17.43;;;14.20;;
75429;SDS011;64127;51.488;5.462;2024-02-04T05:28:16;18.70;;;14.90;;
75429;SDS011;64127;51.488;5.462;2024-02-04T05:30:48;18.40;;;14.30;;
75429;SDS011;64127;51.488;5.462;2024-02-04T05:33:20;16.33;;;14.60;;
75429;SDS011;64127;51.488;5.462;2024-02-04T05:35:52;16.13;;;14.47;;
75429;SDS011;64127;51.488;5.462;2024-02-04T05:38:24;20.43;;;14.40;;
75429;SDS011;64127;51.488;5.462;2024-02-04T05:40:56;17.00;;;14.00;;
75429;SDS011;64127;51.488;5.462;2024-02-04T05:43:28;20.03;;;15.43;;
75429;SDS011;64127;51.488;5.462;2024-02-04T05:46:00;20.03;;;15.63;;
75429;SDS011;64127;51.488;5.462;2024-02-04T05:48:32;19.50;;;16.13;;
75429;SDS011;64127;51.488;5.462;2024-02-04T05:51:04;18.07;;;16.17;;
75429;SDS011;64127;51.488;5.462;2024-02-04T05:53:36;18.93;;;14.73;;
75429;SDS011;64127;51.488;5.462;2024-02-04T05:56:08;18.30;;;14.60;;
75429;SDS011;64127;51.488;5.462;2024-02-04T05:58:40;17.63;;;15.20;;
75429;SDS011;64127;51.488;5.462;2024-02-04T06:01:12;16.57;;;14.93;;
75429;SDS011;64127;51.488;5.462;2024-02-04T06:03:45;18.77;;;14.30;;
75429;SDS011;64127;51.488;5.462;2024-02-04T06:06:17;16.60;;;14.07;;
75429;SDS011;64127;51.488;5.462;2024-02-04T06:08:51;16.53;;;13.50;;
75429;SDS011;64127;51.488;5.462;2024-02-04T06:11:23;14.63;;;13.10;;
75429;SDS011;64127;51.488;5.462;2024-02-04T06:13:55;15.43;;;13.80;;
75429;SDS011;64127;51.488;5.462;2024-02-04T06:16:27;16.50;;;13.30;;
75429;SDS011;64127;51.488;5.462;2024-02-04T06:18:59;17.70;;;13.60;;
75429;SDS011;64127;51.488;5.462;2024-02-04T06:21:31;16.97;;;13.50;;
75429;SDS011;64127;51.488;5.462;2024-02-04T06:24:03;16.30;;;13.97;;
75429;SDS011;64127;51.488;5.462;2024-02-04T06:26:37;15.77;;;12.90;;
75429;SDS011;64127;51.488;5.462;2024-02-04T06:29:10;14.97;;;13.10;;
75429;SDS011;64127;51.488;5.462;2024-02-04T06:31:46;14.33;;;12.87;;
75429;SDS011;64127;51.488;5.462;2024-02-04T06:34:18;13.20;;;11.87;;
75429;SDS011;64127;51.488;5.462;2024-02-04T06:36:50;13.73;;;12.23;;
75429;SDS011;64127;51.488;5.462;2024-02-04T06:39:22;14.10;;;12.53;;
75429;SDS011;64127;51.488;5.462;2024-02-04T06:41:54;13.50;;;12.10;;
75429;SDS011;64127;51.488;5.462;2024-02-04T06:44:26;16.30;;;12.43;;
75429;SDS011;64127;51.488;5.462;2024-02-04T06:46:58;13.83;;;12.43;;
75429;SDS011;64127;51.488;5.462;2024-02-04T06:49:30;14.03;;;12.63;;
75429;SDS011;64127;51.488;5.462;2024-02-04T06:52:02;14.10;;;12.57;;
75429;SDS011;64127;51.488;5.462;2024-02-04T06:54:35;13.73;;;12.00;;
75429;SDS011;64127;51.488;5.462;2024-02-04T06:57:08;15.07;;;13.60;;
75429;SDS011;64127;51.488;5.462;2024-02-04T06:59:40;18.07;;;14.23;;
75429;SDS011;64127;51.488;5.462;2024-02-04T07:02:12;16.97;;;15.27;;
75429;SDS011;64127;51.488;5.462;2024-02-04T07:04:44;17.20;;;15.40;;
75429;SDS011;64127;51.488;5.462;2024-02-04T07:07:16;16.43;;;14.97;;
75429;SDS011;64127;51.488;5.462;2024-02-04T07:09:48;18.33;;;15.97;;
75429;SDS011;64127;51.488;5.462;2024-02-04T07:12:20;17.47;;;15.77;;
75429;SDS011;64127;51.488;5.462;2024-02-04T07:14:53;17.70;;;15.83;;
75429;SDS011;64127;51.488;5.462;2024-02-04T07:17:26;17.60;;;15.80;;
75429;SDS011;64127;51.488;5.462;2024-02-04T07:19:58;18.03;;;16.13;;
75429;SDS011;64127;51.488;5.462;2024-02-04T07:22:30;18.03;;;16.07;;
75429;SDS011;64127;51.488;5.462;2024-02-04T07:25:06;20.45;;;18.45;;
75429;SDS011;64127;51.488;5.462;2024-02-04T07:27:39;18.67;;;16.80;;
75429;SDS011;64127;51.488;5.462;2024-02-04T07:30:11;18.13;;;16.30;;
75429;SDS011;64127;51.488;5.462;2024-02-04T07:32:43;18.17;;;16.27;;
75429;SDS011;64127;51.488;5.462;2024-02-04T07:35:15;20.13;;;16.60;;
75429;SDS011;64127;51.488;5.462;2024-02-04T07:37:47;18.60;;;16.80;;
75429;SDS011;64127;51.488;5.462;2024-02-04T07:40:19;20.37;;;18.27;;
75429;SDS011;64127;51.488;5.462;2024-02-04T07:42:52;19.13;;;17.10;;
75429;SDS011;64127;51.488;5.462;2024-02-04T07:45:24;20.33;;;18.27;;
75429;SDS011;64127;51.488;5.462;2024-02-04T07:47:56;20.10;;;18.20;;
75429;SDS011;64127;51.488;5.462;2024-02-04T07:50:28;19.33;;;17.53;;
75429;SDS011;64127;51.488;5.462;2024-02-04T07:53:00;20.30;;;18.20;;
75429;SDS011;64127;51.488;5.462;2024-02-04T07:55:32;19.80;;;17.80;;
75429;SDS011;64127;51.488;5.462;2024-02-04T07:58:04;18.60;;;16.97;;
75429;SDS011;64127;51.488;5.462;2024-02-04T08:00:36;18.63;;;16.73;;
75429;SDS011;64127;51.488;5.462;2024-02-04T08:03:08;19.00;;;17.00;;
75429;SDS011;64127;51.488;5.462;2024-02-04T08:05:40;18.70;;;16.90;;
75429;SDS011;64127;51.488;5.462;2024-02-04T08:08:12;18.43;;;16.50;;
75429;SDS011;64127;51.488;5.462;2024-02-04T08:10:45;18.27;;;16.37;;
75429;SDS011;64127;51.488;5.462;2024-02-04T08:13:17;17.20;;;15.50;;
75429;SDS011;64127;51.488;5.462;2024-02-04T08:15:49;17.33;;;15.70;;
75429;SDS011;64127;51.488;5.462;2024-02-04T08:18:21;18.00;;;16.20;;
75429;SDS011;64127;51.488;5.462;2024-02-04T08:20:53;18.40;;;16.60;;
75429;SDS011;64127;51.488;5.462;2024-02-04T08:23:25;19.03;;;17.03;;
75429;SDS011;64127;51.488;5.462;2024-02-04T08:25:57;19.70;;;17.57;;
75429;SDS011;64127;51.488;5.462;2024-02-04T08:28:29;19.80;;;17.83;;
75429;SDS011;64127;51.488;5.462;2024-02-04T08:31:01;19.17;;;17.37;;
75429;SDS011;64127;51.488;5.462;2024-02-04T08:33:33;20.10;;;18.10;;
75429;SDS011;64127;51.488;5.462;2024-02-04T08:36:06;20.27;;;18.13;;
75429;SDS011;64127;51.488;5.462;2024-02-04T08:38:41;21.00;;;18.17;;
75429;SDS011;64127;51.488;5.462;2024-02-04T08:41:13;19.53;;;17.73;;
75429;SDS011;64127;51.488;5.462;2024-02-04T08:43:45;18.90;;;17.07;;
75429;SDS011;64127;51.488;5.462;2024-02-04T08:46:17;19.13;;;16.33;;
75429;SDS011;64127;51.488;5.462;2024-02-04T08:48:50;18.03;;;16.10;;
75429;SDS011;64127;51.488;5.462;2024-02-04T08:51:22;18.90;;;17.10;;
75429;SDS011;64127;51.488;5.462;2024-02-04T08:53:54;17.93;;;16.20;;
75429;SDS011;64127;51.488;5.462;2024-02-04T08:56:26;18.70;;;16.70;;
75429;SDS011;64127;51.488;5.462;2024-02-04T08:59:01;18.93;;;17.03;;
75429;SDS011;64127;51.488;5.462;2024-02-04T09:01:33;17.63;;;15.90;;
75429;SDS011;64127;51.488;5.462;2024-02-04T09:04:05;18.73;;;16.93;;
75429;SDS011;64127;51.488;5.462;2024-02-04T09:06:37;17.23;;;15.63;;
75429;SDS011;64127;51.488;5.462;2024-02-04T09:09:10;18.90;;;16.87;;
75429;SDS011;64127;51.488;5.462;2024-02-04T09:11:42;17.20;;;15.50;;
75429;SDS011;64127;51.488;5.462;2024-02-04T09:14:14;17.93;;;16.27;;
75429;SDS011;64127;51.488;5.462;2024-02-04T09:16:46;17.67;;;15.83;;
75429;SDS011;64127;51.488;5.462;2024-02-04T09:19:18;16.73;;;15.13;;
75429;SDS011;64127;51.488;5.462;2024-02-04T09:21:50;16.63;;;15.03;;
75429;SDS011;64127;51.488;5.462;2024-02-04T09:24:22;16.77;;;14.93;;
75429;SDS011;64127;51.488;5.462;2024-02-04T09:26:55;15.60;;;14.20;;
75429;SDS011;64127;51.488;5.462;2024-02-04T09:29:27;16.33;;;14.73;;
75429;SDS011;64127;51.488;5.462;2024-02-04T09:31:59;15.37;;;13.80;;
75429;SDS011;64127;51.488;5.462;2024-02-04T09:34:31;16.27;;;14.87;;
75429;SDS011;64127;51.488;5.462;2024-02-04T09:37:04;17.43;;;15.87;;
75429;SDS011;64127;51.488;5.462;2024-02-04T09:39:36;16.67;;;15.23;;
75429;SDS011;64127;51.488;5.462;2024-02-04T09:42:08;18.27;;;16.37;;
75429;SDS011;64127;51.488;5.462;2024-02-04T09:44:41;20.23;;;18.43;;
75429;SDS011;64127;51.488;5.462;2024-02-04T09:47:14;20.57;;;18.57;;
75429;SDS011;64127;51.488;5.462;2024-02-04T09:49:46;21.57;;;19.57;;
75429;SDS011;64127;51.488;5.462;2024-02-04T09:52:19;20.80;;;18.90;;
75429;SDS011;64127;51.488;5.462;2024-02-04T09:55:00;22.47;;;20.27;;
75429;SDS011;64127;51.488;5.462;2024-02-04T09:57:37;22.90;;;20.87;;
75429;SDS011;64127;51.488;5.462;2024-02-04T10:00:10;23.93;;;21.67;;
75429;SDS011;64127;51.488;5.462;2024-02-04T10:02:44;23.10;;;20.97;;
75429;SDS011;64127;51.488;5.462;2024-02-04T10:05:16;24.07;;;21.87;;
75429;SDS011;64127;51.488;5.462;2024-02-04T10:07:49;24.23;;;21.97;;
75429;SDS011;64127;51.488;5.462;2024-02-04T10:10:21;25.37;;;22.87;;
75429;SDS011;64127;51.488;5.462;2024-02-04T10:12:54;25.27;;;22.87;;
75429;SDS011;64127;51.488;5.462;2024-02-04T10:15:30;23.67;;;21.47;;
75429;SDS011;64127;51.488;5.462;2024-02-04T10:18:03;23.97;;;21.77;;
75429;SDS011;64127;51.488;5.462;2024-02-04T10:20:39;24.80;;;22.43;;
75429;SDS011;64127;51.488;5.462;2024-02-04T10:23:11;22.63;;;20.50;;
75429;SDS011;64127;51.488;5.462;2024-02-04T10:25:43;21.87;;;19.87;;
75429;SDS011;64127;51.488;5.462;2024-02-04T10:28:15;20.63;;;18.60;;
75429;SDS011;64127;51.488;5.462;2024-02-04T10:30:48;22.90;;;20.57;;
75429;SDS011;64127;51.488;5.462;2024-02-04T10:33:20;21.27;;;19.27;;
75429;SDS011;64127;51.488;5.462;2024-02-04T10:35:53;21.33;;;19.20;;
75429;SDS011;64127;51.488;5.462;2024-02-04T10:38:25;19.87;;;18.07;;
75429;SDS011;64127;51.488;5.462;2024-02-04T10:40:58;20.43;;;18.43;;
75429;SDS011;64127;51.488;5.462;2024-02-04T10:43:34;20.37;;;18.47;;
75429;SDS011;64127;51.488;5.462;2024-02-04T10:46:12;20.37;;;18.63;;
75429;SDS011;64127;51.488;5.462;2024-02-04T10:48:56;20.30;;;18.40;;
75429;SDS011;64127;51.488;5.462;2024-02-04T10:51:33;19.30;;;17.40;;
75429;SDS011;64127;51.488;5.462;2024-02-04T10:54:08;19.17;;;17.37;;
75429;SDS011;64127;51.488;5.462;2024-02-04T10:56:51;19.23;;;17.53;;
75429;SDS011;64127;51.488;5.462;2024-02-04T10:59:34;19.93;;;18.00;;
75429;SDS011;64127;51.488;5.462;2024-02-04T11:02:06;20.60;;;18.67;;
75429;SDS011;64127;51.488;5.462;2024-02-04T11:04:39;19.40;;;17.70;;
75429;SDS011;64127;51.488;5.462;2024-02-04T11:07:14;19.63;;;17.83;;
75429;SDS011;64127;51.488;5.462;2024-02-04T11:09:48;19.33;;;17.57;;
75429;SDS011;64127;51.488;5.462;2024-02-04T11:12:22;18.93;;;17.33;;
75429;SDS011;64127;51.488;5.462;2024-02-04T11:14:57;18.70;;;16.90;;
75429;SDS011;64127;51.488;5.462;2024-02-04T11:17:40;19.17;;;17.47;;
75429;SDS011;64127;51.488;5.462;2024-02-04T11:20:25;18.43;;;16.83;;
75429;SDS011;64127;51.488;5.462;2024-02-04T11:26:40;17.80;;;16.10;;
75429;SDS011;64127;51.488;5.462;2024-02-04T11:29:13;18.70;;;16.90;;
75429;SDS011;64127;51.488;5.462;2024-02-04T11:31:45;19.67;;;17.93;;
75429;SDS011;64127;51.488;5.462;2024-02-04T11:34:18;20.57;;;18.67;;
75429;SDS011;64127;51.488;5.462;2024-02-04T11:36:50;19.23;;;17.33;;
75429;SDS011;64127;51.488;5.462;2024-02-04T11:39:23;19.93;;;17.97;;
75429;SDS011;64127;51.488;5.462;2024-02-04T11:41:56;19.37;;;17.50;;
75429;SDS011;64127;51.488;5.462;2024-02-04T11:44:28;19.10;;;17.37;;
75429;SDS011;64127;51.488;5.462;2024-02-04T11:47:00;18.77;;;16.77;;
75429;SDS011;64127;51.488;5.462;2024-02-04T11:49:33;18.47;;;16.77;;
75429;SDS011;64127;51.488;5.462;2024-02-04T11:52:05;20.00;;;18.13;;
75429;SDS011;64127;51.488;5.462;2024-02-04T11:54:37;17.87;;;16.10;;
75429;SDS011;64127;51.488;5.462;2024-02-04T11:57:10;17.80;;;16.30;;
75429;SDS011;64127;51.488;5.462;2024-02-04T11:59:42;17.20;;;15.60;;
75429;SDS011;64127;51.488;5.462;2024-02-04T12:02:16;18.43;;;16.50;;
75429;SDS011;64127;51.488;5.462;2024-02-04T12:04:48;17.67;;;15.97;;
75429;SDS011;64127;51.488;5.462;2024-02-04T12:07:22;17.87;;;16.10;;
75429;SDS011;64127;51.488;5.462;2024-02-04T12:09:54;17.80;;;16.10;;
75429;SDS011;64127;51.488;5.462;2024-02-04T12:12:28;17.60;;;15.90;;
75429;SDS011;64127;51.488;5.462;2024-02-04T12:15:03;16.37;;;14.77;;
75429;SDS011;64127;51.488;5.462;2024-02-04T12:17:36;15.83;;;14.40;;
75429;SDS011;64127;51.488;5.462;2024-02-04T12:20:08;16.80;;;15.20;;
75429;SDS011;64127;51.488;5.462;2024-02-04T12:22:42;15.73;;;14.37;;
75429;SDS011;64127;51.488;5.462;2024-02-04T12:25:14;16.70;;;15.00;;
75429;SDS011;64127;51.488;5.462;2024-02-04T12:27:50;16.40;;;14.73;;
75429;SDS011;64127;51.488;5.462;2024-02-04T12:30:23;16.37;;;14.87;;
75429;SDS011;64127;51.488;5.462;2024-02-04T12:32:56;14.70;;;13.40;;
75429;SDS011;64127;51.488;5.462;2024-02-04T12:35:33;14.87;;;13.67;;
75429;SDS011;64127;51.488;5.462;2024-02-04T12:38:05;14.70;;;13.30;;
75429;SDS011;64127;51.488;5.462;2024-02-04T12:40:38;14.03;;;12.83;;
75429;SDS011;64127;51.488;5.462;2024-02-04T12:43:11;13.50;;;12.10;;
75429;SDS011;64127;51.488;5.462;2024-02-04T12:45:43;13.23;;;12.10;;
75429;SDS011;64127;51.488;5.462;2024-02-04T12:48:15;12.57;;;11.47;;
75429;SDS011;64127;51.488;5.462;2024-02-04T12:50:49;12.87;;;11.60;;
75429;SDS011;64127;51.488;5.462;2024-02-04T12:53:21;11.50;;;10.33;;
75429;SDS011;64127;51.488;5.462;2024-02-04T12:55:57;12.23;;;11.03;;
75429;SDS011;64127;51.488;5.462;2024-02-04T12:58:31;11.07;;;10.10;;
75429;SDS011;64127;51.488;5.462;2024-02-04T13:01:14;11.10;;;9.97;;
75429;SDS011;64127;51.488;5.462;2024-02-04T13:03:47;10.67;;;9.67;;
75429;SDS011;64127;51.488;5.462;2024-02-04T13:06:21;10.27;;;9.27;;
75429;SDS011;64127;51.488;5.462;2024-02-04T13:08:54;9.00;;;8.10;;
75429;SDS011;64127;51.488;5.462;2024-02-04T13:11:30;8.50;;;7.03;;
75429;SDS011;64127;51.488;5.462;2024-02-04T13:14:02;7.50;;;6.60;;
75429;SDS011;64127;51.488;5.462;2024-02-04T13:16:34;6.83;;;6.13;;
75429;SDS011;64127;51.488;5.462;2024-02-04T13:19:07;6.50;;;5.90;;
75429;SDS011;64127;51.488;5.462;2024-02-04T13:21:39;6.03;;;5.43;;
75429;SDS011;64127;51.488;5.462;2024-02-04T13:24:11;6.27;;;5.60;;
75429;SDS011;64127;51.488;5.462;2024-02-04T13:26:43;8.23;;;5.40;;
75429;SDS011;64127;51.488;5.462;2024-02-04T13:29:15;5.33;;;4.77;;
75429;SDS011;64127;51.488;5.462;2024-02-04T13:31:47;4.77;;;4.37;;
75429;SDS011;64127;51.488;5.462;2024-02-04T13:34:19;5.70;;;4.50;;
75429;SDS011;64127;51.488;5.462;2024-02-04T13:36:52;4.50;;;4.10;;
75429;SDS011;64127;51.488;5.462;2024-02-04T13:39:24;4.50;;;4.10;;
75429;SDS011;64127;51.488;5.462;2024-02-04T13:41:56;4.97;;;4.17;;
75429;SDS011;64127;51.488;5.462;2024-02-04T13:44:28;5.57;;;4.00;;
75429;SDS011;64127;51.488;5.462;2024-02-04T13:47:00;3.87;;;3.53;;
75429;SDS011;64127;51.488;5.462;2024-02-04T13:49:32;4.37;;;3.93;;
75429;SDS011;64127;51.488;5.462;2024-02-04T13:52:04;4.60;;;3.70;;
75429;SDS011;64127;51.488;5.462;2024-02-04T13:54:37;4.73;;;3.57;;
75429;SDS011;64127;51.488;5.462;2024-02-04T13:57:09;3.90;;;3.27;;
75429;SDS011;64127;51.488;5.462;2024-02-04T13:59:41;4.23;;;3.60;;
75429;SDS011;64127;51.488;5.462;2024-02-04T14:02:13;3.73;;;3.27;;
75429;SDS011;64127;51.488;5.462;2024-02-04T14:04:45;5.97;;;3.67;;
75429;SDS011;64127;51.488;5.462;2024-02-04T14:07:18;4.07;;;3.30;;
75429;SDS011;64127;51.488;5.462;2024-02-04T14:09:51;4.90;;;3.50;;
75429;SDS011;64127;51.488;5.462;2024-02-04T14:12:23;4.03;;;3.67;;
75429;SDS011;64127;51.488;5.462;2024-02-04T14:14:55;4.90;;;3.97;;
75429;SDS011;64127;51.488;5.462;2024-02-04T14:17:27;4.20;;;3.50;;
75429;SDS011;64127;51.488;5.462;2024-02-04T14:19:59;3.77;;;3.40;;
75429;SDS011;64127;51.488;5.462;2024-02-04T14:22:32;5.30;;;3.30;;
75429;SDS011;64127;51.488;5.462;2024-02-04T14:25:04;5.10;;;3.27;;
75429;SDS011;64127;51.488;5.462;2024-02-04T14:27:38;3.70;;;3.30;;
75429;SDS011;64127;51.488;5.462;2024-02-04T14:30:11;5.53;;;3.87;;
75429;SDS011;64127;51.488;5.462;2024-02-04T14:32:43;5.60;;;4.23;;
75429;SDS011;64127;51.488;5.462;2024-02-04T14:35:15;5.03;;;4.30;;
75429;SDS011;64127;51.488;5.462;2024-02-04T14:37:47;5.50;;;4.97;;
75429;SDS011;64127;51.488;5.462;2024-02-04T14:40:19;7.00;;;4.93;;
75429;SDS011;64127;51.488;5.462;2024-02-04T14:42:51;5.87;;;5.00;;
75429;SDS011;64127;51.488;5.462;2024-02-04T14:45:24;6.47;;;5.23;;
75429;SDS011;64127;51.488;5.462;2024-02-04T14:47:56;6.30;;;5.17;;
75429;SDS011;64127;51.488;5.462;2024-02-04T14:50:28;7.47;;;5.17;;
75429;SDS011;64127;51.488;5.462;2024-02-04T14:53:00;6.73;;;4.60;;
75429;SDS011;64127;51.488;5.462;2024-02-04T14:55:32;5.50;;;4.57;;
75429;SDS011;64127;51.488;5.462;2024-02-04T14:58:04;5.50;;;4.33;;
75429;SDS011;64127;51.488;5.462;2024-02-04T15:00:37;5.30;;;4.70;;
75429;SDS011;64127;51.488;5.462;2024-02-04T15:03:09;7.80;;;4.97;;
75429;SDS011;64127;51.488;5.462;2024-02-04T15:05:41;6.23;;;4.63;;